Time;durP1;ratioP1;P1;durP2;ratioP2;P2;SDS_P1;SDS_P2;PMS_P1;PMS_P2;Temp;Humidity;BMP_temperature;BMP_pressure;BME280_temperature;BME280_humidity;BME280_pressure;Samples;Min_cycle;Max_cycle;Signal;HPM_P1;HPM_P2
2021/12/04 00:02:25;;;;;;;49.47;32.88;;;4.40;99.90;;;;;;5012641;28;20072;-50
2021/12/04 00:04:53;;;;;;;50.30;32.45;;;4.40;99.90;;;;;;5005848;28;20050;-52
2021/12/04 00:07:22;;;;;;;49.20;32.20;;;4.40;99.90;;;;;;5011958;28;20088;-53
2021/12/04 00:09:50;;;;;;;48.25;29.95;;;4.40;99.90;;;;;;5017565;28;20096;-51
2021/12/04 00:12:18;;;;;;;53.50;31.73;;;4.40;99.90;;;;;;5031962;28;20087;-48
2021/12/04 00:14:45;;;;;;;49.75;31.15;;;4.40;99.90;;;;;;5029739;28;20128;-51
2021/12/04 00:17:12;;;;;;;53.80;31.52;;;4.40;99.90;;;;;;5019125;28;20050;-49
2021/12/04 00:19:38;;;;;;;53.28;31.90;;;4.40;99.90;;;;;;5000495;28;20049;-49
2021/12/04 00:22:05;;;;;;;54.75;31.40;;;4.40;99.90;;;;;;5000619;28;20045;-51
2021/12/04 00:24:31;;;;;;;57.65;31.05;;;4.40;99.90;;;;;;5019812;28;20045;-49
2021/12/04 00:26:58;;;;;;;49.80;29.13;;;4.40;99.90;;;;;;5031814;28;20044;-49
2021/12/04 00:29:24;;;;;;;52.03;32.47;;;4.40;99.90;;;;;;5032607;28;20049;-48
2021/12/04 00:32:12;;;;;;;49.72;30.40;;;4.40;99.90;;;;;;5015956;28;20081;-52
2021/12/04 00:34:45;;;;;;;56.88;30.48;;;4.40;99.90;;;;;;5017726;28;20045;-49
2021/12/04 00:37:47;;;;;;;58.13;33.10;;;4.40;99.90;;;;;;5013726;28;20124;-48
2021/12/04 00:51:12;;;;;;;64.28;32.58;;;4.40;99.90;;;;;;5031658;28;20056;-50
2021/12/04 00:53:38;;;;;;;59.60;32.22;;;4.40;99.90;;;;;;4998640;28;20076;-50
2021/12/04 00:56:05;;;;;;;61.15;33.78;;;4.40;99.90;;;;;;5031917;28;20446;-48
2021/12/04 00:58:31;;;;;;;65.13;33.05;;;4.40;99.90;;;;;;5015448;28;20051;-52
2021/12/04 01:00:58;;;;;;;58.45;32.22;;;4.40;99.90;;;;;;5016266;28;20492;-47
2021/12/04 01:03:25;;;;;;;59.97;31.10;;;4.40;99.90;;;;;;5031467;28;20045;-48
2021/12/04 01:05:52;;;;;;;58.88;30.70;;;4.40;99.90;;;;;;5031098;28;20049;-50
2021/12/04 01:08:18;;;;;;;54.42;30.42;;;4.40;99.90;;;;;;5031071;28;20060;-53
2021/12/04 01:10:45;;;;;;;52.83;29.70;;;4.40;99.90;;;;;;4996627;28;20132;-48
2021/12/04 01:13:11;;;;;;;51.00;29.42;;;4.40;99.90;;;;;;5031322;28;20045;-48
2021/12/04 01:15:43;;;;;;;50.90;29.17;;;4.40;99.90;;;;;;5031322;28;20093;-51
2021/12/04 01:18:11;;;;;;;50.83;28.85;;;4.40;99.90;;;;;;5031266;28;20060;-51
2021/12/04 01:20:38;;;;;;;48.20;28.90;;;4.40;99.90;;;;;;5030992;28;20130;-47
2021/12/04 01:23:05;;;;;;;47.00;26.58;;;4.40;99.90;;;;;;5030854;28;20151;-48
2021/12/04 01:25:32;;;;;;;45.70;27.48;;;4.40;99.90;;;;;;5029758;28;20187;-47
2021/12/04 01:27:58;;;;;;;40.70;25.42;;;4.40;99.90;;;;;;5030981;28;20131;-57
2021/12/04 01:30:24;;;;;;;38.33;26.98;;;4.40;99.90;;;;;;5030679;28;20046;-57
2021/12/04 01:32:50;;;;;;;37.20;24.17;;;4.40;99.90;;;;;;5029062;28;20053;-57
2021/12/04 01:35:16;;;;;;;36.17;23.23;;;4.50;99.90;;;;;;5029730;28;20053;-58
2021/12/04 01:37:42;;;;;;;34.17;23.58;;;4.40;99.90;;;;;;5013295;28;20564;-49
2021/12/04 01:40:09;;;;;;;32.00;22.70;;;4.40;99.90;;;;;;4984872;28;20389;-48
2021/12/04 01:42:36;;;;;;;31.25;22.88;;;4.40;99.90;;;;;;5028574;28;20470;-48
2021/12/04 01:45:04;;;;;;;31.25;22.50;;;4.40;99.90;;;;;;4996333;28;20072;-58
2021/12/04 01:47:30;;;;;;;32.95;23.60;;;4.40;99.90;;;;;;5012950;28;20579;-58
2021/12/04 01:49:59;;;;;;;29.48;21.92;;;4.40;99.90;;;;;;5012762;28;20408;-49
2021/12/04 01:52:25;;;;;;;28.85;22.60;;;4.40;99.90;;;;;;5033440;28;20032;-53
2021/12/04 01:54:51;;;;;;;30.75;22.67;;;4.40;99.90;;;;;;4979483;28;20049;-49
2021/12/04 01:57:20;;;;;;;32.38;22.85;;;4.40;99.90;;;;;;5006077;28;20520;-50
2021/12/04 01:59:47;;;;;;;29.80;22.48;;;4.40;99.90;;;;;;5030743;28;20512;-52
2021/12/04 02:02:14;;;;;;;30.33;23.13;;;4.40;99.90;;;;;;5011249;28;20401;-48
2021/12/04 02:04:40;;;;;;;30.88;23.30;;;4.40;99.90;;;;;;5010784;28;20067;-48
2021/12/04 02:07:08;;;;;;;29.50;23.52;;;4.40;99.90;;;;;;4979619;28;20068;-47
2021/12/04 02:09:35;;;;;;;28.25;23.70;;;4.40;99.90;;;;;;5012479;28;20046;-52
2021/12/04 02:12:06;;;;;;;30.08;22.45;;;4.40;99.90;;;;;;5012024;28;20077;-58
2021/12/04 02:14:34;;;;;;;30.65;24.27;;;4.40;99.90;;;;;;5033030;28;20056;-58
2021/12/04 02:17:01;;;;;;;30.23;24.35;;;4.40;99.90;;;;;;4994714;28;20060;-59
2021/12/04 02:19:28;;;;;;;32.25;24.05;;;4.40;99.90;;;;;;5029710;28;20106;-58
2021/12/04 02:21:54;;;;;;;30.73;23.02;;;4.40;99.90;;;;;;5011465;28;20485;-58
2021/12/04 02:24:20;;;;;;;31.88;22.67;;;4.40;99.90;;;;;;5012763;28;20045;-59
2021/12/04 02:26:48;;;;;;;26.92;21.98;;;4.40;99.90;;;;;;4995172;28;20049;-58
2021/12/04 02:29:14;;;;;;;28.90;24.33;;;4.40;99.90;;;;;;5010463;28;20114;-58
2021/12/04 02:31:46;;;;;;;24.95;21.88;;;4.40;99.90;;;;;;4995398;28;20053;-58
2021/12/04 02:34:19;;;;;;;29.42;22.95;;;4.40;99.90;;;;;;4995086;28;20519;-58
2021/12/04 02:36:45;;;;;;;24.88;21.38;;;4.40;99.90;;;;;;5011692;28;20037;-58
2021/12/04 02:39:30;;;;;;;25.40;22.00;;;4.40;99.90;;;;;;5029092;28;20400;-58
2021/12/04 02:41:58;;;;;;;25.42;20.70;;;4.40;99.90;;;;;;4994346;28;20049;-58
2021/12/04 02:44:39;;;;;;;25.52;20.88;;;4.40;99.90;;;;;;5029566;28;20132;-48
2021/12/04 02:47:05;;;;;;;23.50;19.87;;;4.40;99.90;;;;;;5029176;28;20073;-51
2021/12/04 02:49:32;;;;;;;25.60;21.17;;;4.40;99.90;;;;;;5029144;28;20045;-54
2021/12/04 02:52:06;;;;;;;25.40;20.08;;;4.40;99.90;;;;;;4995736;28;20590;-53
2021/12/04 02:54:33;;;;;;;25.15;20.00;;;4.40;99.90;;;;;;5014777;28;20049;-49
2021/12/04 02:57:00;;;;;;;23.17;19.85;;;4.40;99.90;;;;;;5029336;28;20125;-48
2021/12/04 02:59:26;;;;;;;23.70;19.50;;;4.40;99.90;;;;;;5011561;28;20047;-48
2021/12/04 03:01:56;;;;;;;22.13;18.70;;;4.40;99.90;;;;;;5011271;28;20041;-49
2021/12/04 03:04:24;;;;;;;22.83;19.25;;;4.40;99.90;;;;;;5012171;28;20081;-48
2021/12/04 03:06:51;;;;;;;22.83;19.55;;;4.40;99.90;;;;;;5018894;28;20402;-58
2021/12/04 03:09:17;;;;;;;22.63;18.92;;;4.30;99.90;;;;;;5029144;28;20053;-58
2021/12/04 03:11:44;;;;;;;21.58;18.70;;;4.40;99.90;;;;;;4986065;28;20128;-58
2021/12/04 03:14:11;;;;;;;21.38;18.45;;;4.40;99.90;;;;;;5029212;28;20033;-58
2021/12/04 03:16:41;;;;;;;22.83;17.65;;;4.40;99.90;;;;;;5010790;28;20076;-58
2021/12/04 03:19:08;;;;;;;21.30;17.10;;;4.30;99.90;;;;;;5028224;28;20126;-58
2021/12/04 03:21:36;;;;;;;23.13;17.85;;;4.40;99.90;;;;;;5003141;28;20048;-59
2021/12/04 03:24:05;;;;;;;23.98;17.35;;;4.40;99.90;;;;;;5029406;28;20084;-58
2021/12/04 03:26:32;;;;;;;22.35;17.77;;;4.40;99.90;;;;;;5027752;28;20053;-59
2021/12/04 03:29:02;;;;;;;21.17;16.92;;;4.40;99.90;;;;;;4978847;28;20046;-58
2021/12/04 03:42:20;;;;;;;19.45;16.08;;;4.30;99.90;;;;;;5029293;28;20051;-58
2021/12/04 03:44:47;;;;;;;20.80;17.00;;;4.30;99.90;;;;;;5011060;28;20053;-58
2021/12/04 03:47:13;;;;;;;23.85;17.60;;;4.30;99.90;;;;;;5028622;28;20073;-58
2021/12/04 03:49:39;;;;;;;22.88;16.10;;;4.30;99.90;;;;;;5020631;28;20041;-58
2021/12/04 03:52:06;;;;;;;23.52;16.50;;;4.30;99.90;;;;;;5027499;28;20512;-58
2021/12/04 03:54:33;;;;;;;22.35;16.92;;;4.30;99.90;;;;;;5031324;28;20052;-50
2021/12/04 03:57:05;;;;;;;22.65;16.85;;;4.30;99.90;;;;;;5027969;28;20183;-48
2021/12/04 03:59:33;;;;;;;21.25;16.00;;;4.30;99.90;;;;;;5027956;28;20046;-48
2021/12/04 04:02:00;;;;;;;20.35;16.13;;;4.30;99.90;;;;;;5010119;28;20048;-50
2021/12/04 04:04:26;;;;;;;20.73;16.30;;;4.30;99.90;;;;;;5013787;28;20044;-54
2021/12/04 04:06:52;;;;;;;22.65;16.02;;;4.30;99.90;;;;;;5010487;28;20096;-58
2021/12/04 04:09:18;;;;;;;23.65;15.95;;;4.30;99.90;;;;;;5028103;28;20156;-58
2021/12/04 04:11:46;;;;;;;20.02;16.25;;;4.30;99.90;;;;;;5013383;28;20501;-58
2021/12/04 04:14:14;;;;;;;23.13;16.45;;;4.30;99.90;;;;;;5028497;28;20515;-58
2021/12/04 04:16:41;;;;;;;24.27;15.70;;;4.30;99.90;;;;;;5010992;28;20041;-58
2021/12/04 04:19:08;;;;;;;20.15;15.63;;;4.30;99.90;;;;;;5028037;28;20053;-58
2021/12/04 04:21:39;;;;;;;21.55;15.52;;;4.30;99.90;;;;;;5022816;28;20053;-58
2021/12/04 04:24:07;;;;;;;22.63;16.17;;;4.30;99.90;;;;;;4994663;28;20053;-58
2021/12/04 04:26:34;;;;;;;21.23;15.73;;;4.30;99.90;;;;;;4978225;28;20041;-58
2021/12/04 04:29:00;;;;;;;21.55;16.52;;;4.30;99.90;;;;;;4994786;28;20050;-58
2021/12/04 04:31:26;;;;;;;21.48;16.33;;;4.30;99.90;;;;;;5027948;28;20128;-58
2021/12/04 04:33:57;;;;;;;20.80;15.02;;;4.30;99.90;;;;;;5028547;28;20045;-58
2021/12/04 04:39:46;;;;;;;22.45;16.40;;;4.40;99.90;;;;;;5027651;28;20527;-58
2021/12/04 04:58:58;;;;;;;19.27;15.93;;;4.30;99.90;;;;;;5030584;28;20128;-48
2021/12/04 05:01:58;;;;;;;18.38;15.18;;;4.40;99.90;;;;;;5031743;28;20064;-48
2021/12/04 05:10:23;;;;;;;21.58;15.95;;;4.30;99.90;;;;;;4954345;28;20621;-48
2021/12/04 05:12:56;;;;;;;20.65;16.27;;;4.30;99.90;;;;;;5013521;28;20081;-49
2021/12/04 05:15:57;;;;;;;20.75;15.35;;;4.40;99.90;;;;;;5012857;28;20124;-53
2021/12/04 05:21:05;;;;;;;19.88;15.32;;;4.40;99.90;;;;;;5030367;28;20072;-48
2021/12/04 05:23:38;;;;;;;18.73;15.65;;;4.40;99.90;;;;;;5011122;28;20618;-50
2021/12/04 05:26:06;;;;;;;18.98;14.75;;;4.40;99.90;;;;;;5031058;28;20092;-48
2021/12/04 05:28:32;;;;;;;19.75;15.32;;;4.40;99.90;;;;;;5031231;28;20562;-51
2021/12/04 05:30:59;;;;;;;18.50;14.55;;;4.30;99.90;;;;;;5031045;28;20056;-51
2021/12/04 05:33:26;;;;;;;18.35;15.10;;;4.30;99.90;;;;;;5013327;28;20810;-48
2021/12/04 05:35:52;;;;;;;18.17;14.73;;;4.40;99.90;;;;;;5013361;28;20057;-49
2021/12/04 05:38:19;;;;;;;19.85;15.95;;;4.40;99.90;;;;;;5030790;28;20046;-50
2021/12/04 05:40:46;;;;;;;20.08;15.95;;;4.30;99.90;;;;;;5030692;28;20081;-48
2021/12/04 05:43:13;;;;;;;20.75;15.15;;;4.40;99.90;;;;;;5014931;28;20041;-50
2021/12/04 05:45:47;;;;;;;19.35;14.63;;;4.30;99.90;;;;;;4995618;28;20084;-50
2021/12/04 05:48:23;;;;;;;18.15;14.40;;;4.30;99.90;;;;;;4981885;28;20492;-49
2021/12/04 05:53:55;;;;;;;19.45;16.05;;;4.40;99.90;;;;;;4999125;28;20144;-48
2021/12/04 05:56:22;;;;;;;18.98;15.68;;;4.40;99.90;;;;;;5013627;28;20053;-58
2021/12/04 05:58:50;;;;;;;22.35;16.65;;;4.30;99.90;;;;;;5031312;28;20041;-58
2021/12/04 06:01:17;;;;;;;21.13;16.08;;;4.30;99.90;;;;;;5030371;28;20053;-58
2021/12/04 06:03:43;;;;;;;23.70;15.70;;;4.30;99.90;;;;;;5030221;28;20045;-49
2021/12/04 06:06:09;;;;;;;19.98;15.98;;;4.30;99.90;;;;;;5013603;28;20437;-52
2021/12/04 06:08:35;;;;;;;20.42;15.55;;;4.30;99.90;;;;;;5030169;28;20531;-49
2021/12/04 06:11:02;;;;;;;21.58;15.60;;;4.30;99.90;;;;;;5029768;28;20074;-50
2021/12/04 06:13:28;;;;;;;21.00;15.20;;;4.30;99.90;;;;;;5028704;28;20059;-58
2021/12/04 06:15:54;;;;;;;23.30;16.95;;;4.40;99.90;;;;;;5029214;28;20043;-58
2021/12/04 06:18:21;;;;;;;23.50;16.27;;;4.30;99.90;;;;;;5029607;28;20395;-58
2021/12/04 06:23:33;;;;;;;23.20;15.73;;;4.30;99.90;;;;;;5011115;28;20052;-50
2021/12/04 06:26:01;;;;;;;24.33;16.75;;;4.30;99.90;;;;;;4998115;28;20373;-58
2021/12/04 06:28:28;;;;;;;24.48;16.95;;;4.30;99.90;;;;;;5012110;28;20053;-58
2021/12/04 06:30:55;;;;;;;23.25;16.67;;;4.30;99.90;;;;;;5029054;28;20057;-52
2021/12/04 06:33:22;;;;;;;23.88;16.20;;;4.30;99.90;;;;;;4999004;28;20056;-51
2021/12/04 06:35:48;;;;;;;23.83;16.42;;;4.30;99.90;;;;;;5012305;28;20045;-58
2021/12/04 06:38:17;;;;;;;24.35;16.70;;;4.30;99.90;;;;;;5016615;28;20493;-58
2021/12/04 06:40:44;;;;;;;25.42;17.50;;;4.30;99.90;;;;;;5029332;28;20050;-60
2021/12/04 06:43:10;;;;;;;27.58;18.27;;;4.30;99.90;;;;;;5029486;28;20045;-58
2021/12/04 06:45:41;;;;;;;27.52;17.27;;;4.30;99.90;;;;;;5029457;28;20138;-49
2021/12/04 06:48:18;;;;;;;27.35;16.52;;;4.30;99.90;;;;;;5012736;28;20049;-48
2021/12/04 06:50:51;;;;;;;29.80;18.08;;;4.30;99.90;;;;;;5010238;28;20102;-49
2021/12/04 06:55:49;;;;;;;30.17;18.55;;;4.30;99.90;;;;;;5027797;28;20103;-58
2021/12/04 06:58:16;;;;;;;29.17;18.70;;;4.30;99.90;;;;;;4970789;28;20054;-59
2021/12/04 07:00:43;;;;;;;28.15;18.40;;;4.30;99.90;;;;;;4992160;28;20061;-58
2021/12/04 07:03:09;;;;;;;32.17;18.98;;;4.30;99.90;;;;;;5011053;28;20348;-58
2021/12/04 07:05:35;;;;;;;27.60;17.48;;;4.30;99.90;;;;;;5028898;28;20064;-58
2021/12/04 07:08:01;;;;;;;31.35;18.27;;;4.30;99.90;;;;;;5028863;28;20075;-58
2021/12/04 07:10:28;;;;;;;27.60;17.17;;;4.30;99.90;;;;;;5029146;28;20049;-58
2021/12/04 07:12:54;;;;;;;29.08;18.70;;;4.30;99.90;;;;;;4994668;28;20084;-58
2021/12/04 07:15:20;;;;;;;27.23;17.42;;;4.30;99.90;;;;;;5015818;28;20053;-58
2021/12/04 07:17:46;;;;;;;25.33;17.58;;;4.30;99.90;;;;;;5027634;28;20132;-58
2021/12/04 07:20:12;;;;;;;24.52;17.63;;;4.30;99.90;;;;;;5014234;28;20064;-59
2021/12/04 07:22:38;;;;;;;27.75;18.13;;;4.30;99.90;;;;;;5029526;28;20607;-59
2021/12/04 07:25:05;;;;;;;28.92;17.65;;;4.30;99.90;;;;;;5028438;28;20053;-48
2021/12/04 07:27:31;;;;;;;28.35;17.15;;;4.30;99.90;;;;;;5002603;28;20053;-48
2021/12/04 07:29:59;;;;;;;28.52;16.63;;;4.30;99.90;;;;;;5029388;28;20041;-49
2021/12/04 07:32:25;;;;;;;24.23;16.38;;;4.30;99.90;;;;;;5010688;28;20127;-47
2021/12/04 07:34:53;;;;;;;23.90;16.38;;;4.30;99.90;;;;;;4997504;28;20057;-49
2021/12/04 07:37:20;;;;;;;26.45;17.50;;;4.30;99.90;;;;;;5017748;28;20111;-48
2021/12/04 07:39:46;;;;;;;27.70;16.42;;;4.30;99.90;;;;;;5014360;28;20050;-48
2021/12/04 07:42:12;;;;;;;25.92;17.25;;;4.30;99.90;;;;;;5031645;28;20090;-51
2021/12/04 07:44:38;;;;;;;26.75;17.77;;;4.30;99.90;;;;;;5028458;28;20041;-59
2021/12/04 07:47:05;;;;;;;25.90;17.58;;;4.30;99.90;;;;;;5029022;28;20405;-48
2021/12/04 07:49:31;;;;;;;26.40;18.27;;;4.30;99.90;;;;;;5011367;28;20049;-48
2021/12/04 07:51:57;;;;;;;26.98;17.17;;;4.30;99.90;;;;;;5009347;28;20049;-53
2021/12/04 07:54:23;;;;;;;30.50;18.73;;;4.30;99.90;;;;;;5009480;28;20251;-50
2021/12/04 07:56:49;;;;;;;29.83;19.08;;;4.30;99.90;;;;;;5012914;28;20073;-50
2021/12/04 07:59:15;;;;;;;26.52;18.48;;;4.30;99.90;;;;;;4994800;28;20152;-52
2021/12/04 08:01:41;;;;;;;32.75;19.02;;;4.30;99.90;;;;;;5027596;28;20410;-59
2021/12/04 08:04:07;;;;;;;30.38;19.35;;;4.30;99.90;;;;;;5028766;28;20041;-59
2021/12/04 08:06:35;;;;;;;31.15;20.75;;;4.40;99.90;;;;;;5028465;28;20052;-59
2021/12/04 08:09:02;;;;;;;31.90;19.90;;;4.30;99.90;;;;;;4982985;28;20045;-51
2021/12/04 08:11:28;;;;;;;32.05;21.63;;;4.40;99.90;;;;;;5027476;28;20049;-48
2021/12/04 08:13:54;;;;;;;38.80;23.05;;;4.40;99.90;;;;;;4975057;28;20045;-50
2021/12/04 08:16:24;;;;;;;45.42;24.63;;;4.40;99.90;;;;;;4997995;28;20375;-59
2021/12/04 08:18:54;;;;;;;39.28;25.30;;;4.40;99.90;;;;;;5023730;28;20134;-59
2021/12/04 08:21:21;;;;;;;41.70;24.15;;;4.40;99.90;;;;;;5032370;28;20055;-59
2021/12/04 08:23:48;;;;;;;46.08;26.20;;;4.40;99.90;;;;;;5014436;28;20481;-48
2021/12/04 08:26:15;;;;;;;40.88;23.38;;;4.40;99.90;;;;;;5014808;28;20072;-48
2021/12/04 08:28:41;;;;;;;41.10;23.55;;;4.40;99.90;;;;;;5031990;28;20041;-48
2021/12/04 08:31:07;;;;;;;39.40;23.23;;;4.40;99.90;;;;;;5031884;28;20065;-48
2021/12/04 08:33:34;;;;;;;43.88;25.15;;;4.40;99.90;;;;;;5001175;28;20045;-47
2021/12/04 08:36:01;;;;;;;34.42;22.02;;;4.50;99.90;;;;;;4981233;28;20120;-47
2021/12/04 08:38:27;;;;;;;43.00;23.77;;;4.50;99.90;;;;;;5021596;28;20049;-47
2021/12/04 08:40:53;;;;;;;38.00;22.80;;;4.50;99.90;;;;;;5014364;28;20045;-49
2021/12/04 08:43:20;;;;;;;35.08;22.80;;;4.50;99.90;;;;;;5000666;28;20053;-47
2021/12/04 08:45:47;;;;;;;35.20;23.13;;;4.50;99.90;;;;;;5019535;28;20057;-48
2021/12/04 08:48:13;;;;;;;36.85;22.83;;;4.50;99.90;;;;;;4981040;28;20049;-48
2021/12/04 08:50:40;;;;;;;38.08;22.63;;;4.60;99.90;;;;;;5042029;28;20045;-48
2021/12/04 08:53:07;;;;;;;32.60;20.95;;;4.60;99.90;;;;;;5033587;28;20041;-55
2021/12/04 08:55:37;;;;;;;33.30;20.02;;;4.60;99.90;;;;;;5028399;28;20065;-52
2021/12/04 08:58:06;;;;;;;35.33;20.75;;;4.60;99.90;;;;;;4982014;28;20174;-47
2021/12/04 09:00:39;;;;;;;34.20;20.58;;;4.60;99.90;;;;;;4999185;28;20049;-50
2021/12/04 09:03:06;;;;;;;33.72;20.98;;;4.60;99.90;;;;;;5029471;28;20037;-49
2021/12/04 09:05:33;;;;;;;29.60;19.27;;;4.70;99.90;;;;;;5007597;28;20046;-48
2021/12/04 09:08:00;;;;;;;37.72;21.63;;;4.70;99.90;;;;;;5011373;28;20104;-47
2021/12/04 09:10:26;;;;;;;33.70;19.88;;;4.70;99.90;;;;;;5029351;28;20049;-51
2021/12/04 09:12:53;;;;;;;28.30;20.10;;;4.70;99.90;;;;;;5016347;28;20041;-52
2021/12/04 09:15:23;;;;;;;28.38;19.58;;;4.70;99.90;;;;;;5029270;28;20092;-48
2021/12/04 09:17:49;;;;;;;33.58;20.40;;;4.70;99.90;;;;;;5005801;28;20104;-49
2021/12/04 09:20:17;;;;;;;34.53;20.40;;;4.70;99.90;;;;;;5029701;28;20048;-48
2021/12/04 09:22:47;;;;;;;33.13;20.20;;;4.70;99.90;;;;;;5026880;28;20531;-51
2021/12/04 09:25:20;;;;;;;32.03;19.70;;;4.70;99.90;;;;;;5028591;28;20045;-50
2021/12/04 09:28:13;;;;;;;35.42;21.85;;;4.70;99.90;;;;;;5019804;28;20392;-49
2021/12/04 09:31:10;;;;;;;34.45;19.80;;;4.70;99.90;;;;;;5009388;28;20045;-50
2021/12/04 09:34:07;;;;;;;37.75;21.85;;;4.80;99.90;;;;;;5029873;28;20053;-49
2021/12/04 09:36:57;;;;;;;32.40;19.45;;;4.80;99.90;;;;;;5028771;28;20050;-59
2021/12/04 10:04:06;;;;;;;34.65;18.48;;;4.90;99.90;;;;;;5030484;28;20488;-59
2021/12/04 10:34:32;;;;;;;38.42;20.02;;;5.10;99.90;;;;;;4995610;28;20053;-59
2021/12/04 10:37:10;;;;;;;42.42;20.00;;;5.10;99.90;;;;;;5024482;28;20065;-59
2021/12/04 10:39:37;;;;;;;43.25;20.90;;;5.10;99.90;;;;;;5023030;28;20111;-59
2021/12/04 10:42:07;;;;;;;37.72;20.08;;;5.10;99.90;;;;;;5011641;28;20396;-49
2021/12/04 10:44:40;;;;;;;33.10;17.70;;;5.10;99.90;;;;;;4996039;28;20041;-47
2021/12/04 10:47:14;;;;;;;36.47;20.63;;;5.10;99.90;;;;;;5029669;28;20085;-49
2021/12/04 10:52:56;;;;;;;34.10;18.17;;;5.10;99.90;;;;;;5025177;28;20275;-58
2021/12/04 10:55:51;;;;;;;36.97;19.02;;;5.10;99.90;;;;;;5025689;28;20083;-59
2021/12/04 11:04:16;;;;;;;36.90;19.52;;;5.10;99.90;;;;;;5014713;28;20054;-47
2021/12/04 11:40:28;;;;;;;54.30;28.05;;;5.20;99.90;;;;;;5028112;28;20168;-58
2021/12/04 11:43:00;;;;;;;54.78;28.55;;;5.20;99.90;;;;;;5016814;28;20128;-58
2021/12/04 11:45:39;;;;;;;45.05;26.05;;;5.20;99.90;;;;;;5024976;28;20282;-59
2021/12/04 11:48:05;;;;;;;53.92;28.05;;;5.20;99.90;;;;;;4991626;28;20426;-57
2021/12/04 11:50:38;;;;;;;55.55;28.33;;;5.20;99.90;;;;;;4979278;28;20045;-59
2021/12/04 11:53:11;;;;;;;59.97;30.88;;;5.20;99.90;;;;;;5030019;28;20079;-58
2021/12/04 11:55:40;;;;;;;63.90;29.83;;;5.20;99.90;;;;;;5025763;28;20053;-59
2021/12/04 11:58:26;;;;;;;57.83;30.27;;;5.20;99.90;;;;;;5014872;28;20432;-59
2021/12/04 12:00:57;;;;;;;68.45;31.30;;;5.20;99.90;;;;;;4998509;28;20053;-59
2021/12/04 12:03:30;;;;;;;70.57;32.10;;;5.20;99.90;;;;;;5028257;28;20443;-60
2021/12/04 12:06:03;;;;;;;68.57;32.85;;;5.10;99.90;;;;;;5039240;28;20087;-58
2021/12/04 12:08:33;;;;;;;78.75;36.20;;;5.20;99.90;;;;;;5023035;28;20092;-58
2021/12/04 12:11:10;;;;;;;82.88;37.53;;;5.20;99.90;;;;;;5035993;28;20400;-56
2021/12/04 12:13:46;;;;;;;80.38;37.60;;;5.20;99.90;;;;;;5053090;28;20408;-56
2021/12/04 12:16:24;;;;;;;79.22;37.03;;;5.20;99.90;;;;;;5023909;28;20389;-60
2021/12/04 12:19:07;;;;;;;88.82;38.83;;;5.20;99.90;;;;;;5051507;28;20086;-60
2021/12/04 12:21:41;;;;;;;84.85;37.78;;;5.20;99.90;;;;;;4985696;28;20092;-55
2021/12/04 12:24:16;;;;;;;84.18;37.85;;;5.20;99.90;;;;;;5011018;28;20050;-56
2021/12/04 12:27:01;;;;;;;82.70;38.17;;;5.20;99.90;;;;;;4988258;28;20037;-57
2021/12/04 12:36:10;;;;;;;78.35;34.83;;;5.20;99.90;;;;;;5018634;28;20053;-56
2021/12/04 12:38:53;;;;;;;89.68;35.83;;;5.20;99.90;;;;;;5013821;28;20060;-55
2021/12/04 12:41:30;;;;;;;85.43;38.33;;;5.20;99.90;;;;;;5032495;28;20107;-56
2021/12/04 12:44:05;;;;;;;78.68;35.63;;;5.20;99.90;;;;;;5030668;28;20124;-56
2021/12/04 12:46:40;;;;;;;81.78;36.28;;;5.20;99.90;;;;;;5024803;28;20191;-55
2021/12/04 12:49:17;;;;;;;70.15;34.30;;;5.30;99.90;;;;;;5012092;28;20093;-53
2021/12/04 12:51:45;;;;;;;72.35;33.80;;;5.30;99.90;;;;;;5002879;28;20057;-54
2021/12/04 12:54:24;;;;;;;73.25;37.90;;;5.30;99.90;;;;;;5013720;28;20096;-54
2021/12/04 12:56:58;;;;;;;72.95;34.85;;;5.30;99.90;;;;;;4998325;28;20041;-55
2021/12/04 13:13:52;;;;;;;84.78;38.30;;;5.30;99.90;;;;;;5033903;28;20076;-60
2021/12/04 13:16:31;;;;;;;86.88;40.00;;;5.30;99.90;;;;;;5002646;28;20050;-60
2021/12/04 13:19:01;;;;;;;86.90;42.53;;;5.20;99.90;;;;;;5030570;28;20037;-60
2021/12/04 13:21:28;;;;;;;86.85;39.75;;;5.20;99.90;;;;;;5031453;28;20159;-60
2021/12/04 13:23:56;;;;;;;82.70;39.13;;;5.20;99.90;;;;;;4995043;28;20042;-60
2021/12/04 13:26:32;;;;;;;84.43;40.85;;;5.10;99.90;;;;;;5003624;28;20424;-53
2021/12/04 13:29:00;;;;;;;81.90;40.30;;;5.10;99.90;;;;;;5033971;28;20126;-52
2021/12/04 13:31:27;;;;;;;77.43;40.58;;;5.20;99.90;;;;;;5034113;28;20049;-54
2021/12/04 13:33:55;;;;;;;90.13;42.85;;;5.20;99.90;;;;;;5021987;28;20085;-59
2021/12/04 13:36:27;;;;;;;79.25;40.03;;;5.10;99.90;;;;;;5005795;28;20077;-59
2021/12/04 13:39:14;;;;;;;87.82;42.38;;;5.20;99.90;;;;;;4991412;28;20103;-53
2021/12/04 13:41:42;;;;;;;82.80;41.33;;;5.10;99.90;;;;;;5028934;28;20436;-54
2021/12/04 13:44:14;;;;;;;83.32;40.85;;;5.10;99.90;;;;;;5004050;28;20041;-55
2021/12/04 13:46:50;;;;;;;83.43;42.13;;;5.20;99.90;;;;;;5013311;28;20053;-59
2021/12/04 13:49:26;;;;;;;95.60;43.67;;;5.10;99.90;;;;;;5023190;28;20089;-59
2021/12/04 13:51:59;;;;;;;88.60;41.03;;;5.10;99.90;;;;;;5029396;28;20053;-59
2021/12/04 13:54:27;;;;;;;83.75;40.53;;;5.10;99.90;;;;;;5029520;28;20503;-55
2021/12/04 13:56:53;;;;;;;83.80;42.30;;;5.20;99.90;;;;;;5032681;28;20041;-51
2021/12/04 13:59:25;;;;;;;84.60;40.42;;;5.20;99.90;;;;;;5050539;28;20056;-56
2021/12/04 14:01:52;;;;;;;78.20;41.63;;;5.20;99.90;;;;;;5050808;28;20524;-55
2021/12/04 14:04:19;;;;;;;84.72;43.92;;;5.20;99.90;;;;;;5014484;28;20041;-54
2021/12/04 14:06:58;;;;;;;78.25;40.88;;;5.20;99.90;;;;;;5044496;28;20107;-54
2021/12/04 14:09:35;;;;;;;79.72;42.10;;;5.20;99.90;;;;;;5028641;28;20076;-59
2021/12/04 14:12:03;;;;;;;81.00;41.75;;;5.20;99.90;;;;;;5025980;28;20041;-59
2021/12/04 14:14:31;;;;;;;87.82;43.63;;;5.20;99.90;;;;;;4998354;28;20053;-59
2021/12/04 14:17:07;;;;;;;92.15;43.10;;;5.20;99.90;;;;;;5012184;28;20053;-59
2021/12/04 14:19:35;;;;;;;85.57;43.05;;;5.20;99.90;;;;;;4992050;28;20038;-59
2021/12/04 14:22:08;;;;;;;86.57;40.72;;;5.10;99.90;;;;;;5029297;28;20160;-59
2021/12/04 14:24:42;;;;;;;99.30;43.83;;;5.10;99.90;;;;;;5030707;28;20421;-59
2021/12/04 14:27:10;;;;;;;96.28;42.63;;;5.10;99.90;;;;;;5028732;28;20037;-58
2021/12/04 14:29:46;;;;;;;103.03;43.75;;;5.10;99.90;;;;;;5019548;28;20041;-59
2021/12/04 14:32:13;;;;;;;101.90;44.75;;;5.10;99.90;;;;;;5020669;28;20047;-59
2021/12/04 14:34:40;;;;;;;101.50;44.13;;;5.10;99.90;;;;;;5029648;28;20103;-53
2021/12/04 14:37:11;;;;;;;103.53;44.78;;;5.10;99.90;;;;;;4995778;28;20047;-54
2021/12/04 14:39:46;;;;;;;99.47;44.17;;;5.10;99.90;;;;;;5012689;28;20056;-54
2021/12/04 14:42:19;;;;;;;99.07;44.58;;;5.10;99.90;;;;;;5029292;28;20042;-58
2021/12/04 14:44:56;;;;;;;90.10;44.53;;;5.10;99.90;;;;;;5028316;28;20052;-58
2021/12/04 14:47:27;;;;;;;106.18;45.90;;;5.10;99.90;;;;;;4984571;28;20136;-59
2021/12/04 14:49:59;;;;;;;103.55;45.33;;;5.10;99.90;;;;;;5020418;28;20037;-58
2021/12/04 14:52:25;;;;;;;92.25;43.25;;;5.10;99.90;;;;;;5026393;28;20098;-59
2021/12/04 14:54:52;;;;;;;96.75;42.92;;;5.10;99.90;;;;;;5025050;28;20049;-58
2021/12/04 14:57:27;;;;;;;101.47;44.75;;;5.10;99.90;;;;;;5037017;28;20404;-59
2021/12/04 15:00:09;;;;;;;109.60;44.80;;;5.10;99.90;;;;;;5028025;28;20081;-58
2021/12/04 15:02:36;;;;;;;95.38;42.08;;;5.10;99.90;;;;;;5014866;28;20397;-58
2021/12/04 15:05:04;;;;;;;112.85;44.92;;;5.10;99.90;;;;;;5011630;28;20567;-56
2021/12/04 15:07:33;;;;;;;109.60;46.15;;;5.10;99.90;;;;;;5012282;28;20088;-59
2021/12/04 15:10:16;;;;;;;113.70;45.67;;;5.10;99.90;;;;;;5012635;28;20053;-58
2021/12/04 15:12:42;;;;;;;121.75;47.90;;;5.10;99.90;;;;;;5028408;28;20124;-58
2021/12/04 15:15:10;;;;;;;117.68;47.25;;;5.10;99.90;;;;;;5028767;28;20077;-58
2021/12/04 15:17:41;;;;;;;126.70;49.22;;;5.10;99.90;;;;;;5010442;28;20531;-58
2021/12/04 15:20:17;;;;;;;124.20;49.22;;;5.10;99.90;;;;;;5000251;28;20107;-59
2021/12/04 15:22:45;;;;;;;126.85;48.30;;;5.10;99.90;;;;;;4995103;28;20048;-58
2021/12/04 15:25:15;;;;;;;114.05;48.58;;;5.10;99.90;;;;;;4994257;28;20045;-56
2021/12/04 15:27:42;;;;;;;118.53;48.47;;;5.10;99.90;;;;;;5010933;28;20567;-58
2021/12/04 15:30:14;;;;;;;106.72;46.70;;;5.10;99.90;;;;;;5027549;28;20061;-58
2021/12/04 15:32:42;;;;;;;;;;;5.10;99.90;;;;;;5023848;28;20095;-58
2021/12/04 15:35:33;;;;;;;116.20;48.47;;;5.10;99.90;;;;;;5028207;28;19937;-58
2021/12/04 15:38:05;;;;;;;112.07;49.13;;;5.10;99.90;;;;;;4987147;28;20128;-58
2021/12/04 15:40:45;;;;;;;118.50;48.53;;;5.10;99.90;;;;;;5029252;28;20327;-58
2021/12/04 15:43:32;;;;;;;126.47;50.03;;;5.10;99.90;;;;;;5011386;28;20042;-58
2021/12/04 15:55:07;;;;;;;102.63;46.08;;;5.10;99.90;;;;;;4956218;28;20054;-58